createdAt,value
2023-04-18T00:00:10.568Z,9.38
2023-04-18T00:02:44.026Z,9.50
2023-04-18T00:05:18.032Z,9.40
2023-04-18T00:07:45.191Z,8.95
2023-04-18T00:10:12.508Z,8.93
2023-04-18T00:12:39.628Z,8.88
2023-04-18T00:15:09.448Z,7.47
2023-04-18T00:17:39.808Z,9.35
2023-04-18T00:20:11.215Z,7.40
2023-04-18T00:22:42.902Z,7.72
2023-04-18T00:25:11.073Z,7.82
2023-04-18T00:27:41.797Z,8.85
2023-04-18T00:30:09.725Z,8.90
2023-04-18T00:32:38.277Z,7.13
2023-04-18T00:35:05.949Z,9.07
2023-04-18T00:37:32.935Z,8.98
2023-04-18T00:39:59.700Z,8.45
2023-04-18T00:42:28.882Z,7.95
2023-04-18T00:44:55.728Z,8.18
2023-04-18T00:47:22.552Z,8.68
2023-04-18T00:49:49.804Z,9.15
2023-04-18T00:52:18.806Z,9.32
2023-04-18T00:54:47.377Z,9.77
2023-04-18T00:57:14.987Z,8.80
2023-04-18T00:59:42.687Z,10.43
2023-04-18T01:02:09.539Z,10.10
2023-04-18T01:04:37.357Z,9.35
2023-04-18T01:07:05.382Z,8.60
2023-04-18T01:09:32.297Z,10.00
2023-04-18T01:11:59.214Z,9.48
2023-04-18T01:14:26.011Z,10.32
2023-04-18T01:16:53.276Z,8.90
2023-04-18T01:19:20.093Z,10.48
2023-04-18T01:21:47.268Z,9.25
2023-04-18T01:24:16.308Z,9.43
2023-04-18T01:26:49.275Z,9.93
2023-04-18T01:29:16.282Z,10.25
2023-04-18T01:31:43.266Z,8.55
2023-04-18T01:34:10.633Z,9.93
2023-04-18T01:36:39.125Z,9.38
2023-04-18T01:39:07.163Z,10.75
2023-04-18T01:41:34.047Z,10.30
2023-04-18T01:44:01.683Z,9.40
2023-04-18T01:46:29.239Z,9.52
2023-04-18T01:48:57.665Z,9.95
2023-04-18T01:51:24.476Z,8.52
2023-04-18T01:53:53.674Z,9.25
2023-04-18T01:56:20.960Z,9.98
2023-04-18T01:58:47.889Z,9.93
2023-04-18T02:01:14.819Z,9.18
2023-04-18T02:03:41.948Z,9.90
2023-04-18T02:06:10.134Z,7.82
2023-04-18T02:08:37.162Z,10.38
2023-04-18T02:11:06.758Z,9.10
2023-04-18T02:13:33.600Z,10.38
2023-04-18T02:16:00.568Z,9.27
2023-04-18T02:18:27.518Z,9.95
2023-04-18T02:20:54.507Z,9.93
2023-04-18T02:23:22.295Z,10.50
2023-04-18T02:25:49.437Z,9.88
2023-04-18T02:28:17.936Z,10.73
2023-04-18T02:30:44.904Z,10.63
2023-04-18T02:33:11.988Z,7.80
2023-04-18T02:35:40.762Z,10.18
2023-04-18T02:38:09.003Z,9.80
2023-04-18T02:40:35.813Z,9.98
2023-04-18T02:43:02.708Z,8.00
2023-04-18T02:45:29.549Z,10.30
2023-04-18T02:47:59.371Z,10.50
2023-04-18T02:50:27.074Z,11.05
2023-04-18T02:52:55.979Z,9.65
2023-04-18T02:55:26.961Z,8.13
2023-04-18T02:57:57.866Z,10.60
2023-04-18T03:00:44.921Z,9.82
2023-04-18T03:03:32.074Z,9.23
2023-04-18T03:08:43.726Z,8.27
2023-04-18T03:11:10.764Z,8.85
2023-04-18T03:13:37.745Z,9.27
2023-04-18T03:16:05.891Z,8.30
2023-04-18T03:18:33.657Z,9.13
2023-04-18T03:21:01.084Z,9.60
2023-04-18T03:23:30.075Z,10.00
2023-04-18T03:25:58.608Z,8.30
2023-04-18T03:28:27.942Z,8.82
2023-04-18T03:30:54.814Z,9.80
2023-04-18T03:33:22.723Z,8.05
2023-04-18T03:35:54.013Z,8.73
2023-04-18T03:38:21.307Z,9.70
2023-04-18T03:40:49.198Z,9.52
2023-04-18T03:43:23.842Z,6.90
2023-04-18T03:45:52.310Z,8.10
2023-04-18T03:48:19.606Z,9.57
2023-04-18T03:50:47.419Z,8.77
2023-04-18T03:53:15.576Z,9.25
2023-04-18T03:55:43.533Z,9.68
2023-04-18T03:58:13.373Z,8.48
2023-04-18T04:00:40.864Z,9.50
2023-04-18T04:03:11.248Z,9.63
2023-04-18T04:05:39.904Z,9.18
2023-04-18T04:08:06.774Z,8.57
2023-04-18T04:10:34.668Z,8.55
2023-04-18T04:13:01.610Z,7.75
2023-04-18T04:15:30.021Z,9.55
2023-04-18T04:18:02.998Z,9.63
2023-04-18T04:20:31.146Z,8.05
2023-04-18T04:23:07.043Z,9.32
2023-04-18T04:25:35.839Z,10.25
2023-04-18T04:28:08.553Z,8.35
2023-04-18T04:30:46.360Z,8.77
2023-04-18T04:33:13.279Z,8.85
2023-04-18T04:35:40.427Z,9.98
2023-04-18T04:38:08.458Z,9.85
2023-04-18T04:40:43.837Z,9.23
2023-04-18T04:43:15.407Z,10.40
2023-04-18T04:45:44.681Z,8.82
2023-04-18T04:48:12.265Z,9.75
2023-04-18T04:50:41.778Z,9.65
2023-04-18T04:55:39.136Z,9.00
2023-04-18T04:58:05.995Z,8.93
2023-04-18T05:00:53.714Z,10.20
2023-04-18T05:03:21.144Z,9.27
2023-04-18T05:05:48.579Z,7.90
2023-04-18T05:08:15.853Z,9.95
2023-04-18T05:10:43.325Z,8.90
2023-04-18T05:13:10.230Z,8.23
2023-04-18T05:15:37.383Z,9.00
2023-04-18T05:18:04.464Z,9.45
2023-04-18T05:20:31.510Z,8.25
2023-04-18T05:22:58.394Z,7.70
2023-04-18T05:25:25.813Z,7.43
2023-04-18T05:27:52.886Z,9.57
2023-04-18T05:30:19.832Z,8.70
2023-04-18T05:32:46.837Z,8.32
2023-04-18T05:35:14.535Z,7.32
2023-04-18T05:37:41.466Z,8.40
2023-04-18T05:40:09.428Z,10.38
2023-04-18T05:42:36.327Z,8.25
2023-04-18T05:45:03.335Z,9.52
2023-04-18T05:47:30.425Z,7.10
2023-04-18T05:49:57.321Z,8.80
2023-04-18T05:52:26.061Z,7.70
2023-04-18T05:54:53.312Z,9.07
2023-04-18T05:57:20.177Z,9.57
2023-04-18T05:59:47.022Z,9.18
2023-04-18T06:02:14.009Z,8.20
2023-04-18T06:04:43.022Z,8.52
2023-04-18T06:07:10.276Z,8.05
2023-04-18T06:09:37.214Z,7.93
2023-04-18T06:12:04.355Z,8.23
2023-04-18T06:14:31.329Z,6.85
2023-04-18T06:16:58.301Z,8.02
2023-04-18T06:19:25.299Z,8.68
2023-04-18T06:21:53.399Z,9.70
2023-04-18T06:24:20.629Z,7.13
2023-04-18T06:26:47.801Z,9.15
2023-04-18T06:29:14.916Z,7.35
2023-04-18T06:31:42.186Z,7.32
2023-04-18T06:34:09.454Z,9.20
2023-04-18T06:36:36.364Z,6.45
2023-04-18T06:39:03.881Z,7.75
2023-04-18T06:41:31.457Z,8.95
2023-04-18T06:46:28.264Z,9.05
2023-04-18T06:48:55.100Z,7.43
2023-04-18T06:51:21.956Z,8.95
2023-04-18T06:53:52.495Z,7.13
2023-04-18T06:56:22.556Z,8.23
2023-04-18T06:58:50.187Z,7.47
2023-04-18T07:01:17.177Z,8.93
2023-04-18T07:03:44.165Z,7.65
2023-04-18T07:06:11.122Z,10.25
2023-04-18T07:08:38.385Z,6.35
2023-04-18T07:11:06.769Z,8.25
2023-04-18T07:13:33.686Z,6.53
2023-04-18T07:16:01.576Z,8.45
2023-04-18T07:18:37.231Z,5.85
2023-04-18T07:21:08.721Z,9.25
2023-04-18T07:23:36.132Z,7.15
2023-04-18T07:26:05.699Z,6.72
2023-04-18T07:28:33.299Z,7.43
2023-04-18T07:31:01.320Z,6.07
2023-04-18T07:33:31.648Z,8.00
2023-04-18T07:35:58.769Z,8.10
2023-04-18T07:38:25.714Z,7.20
2023-04-18T07:41:00.830Z,8.43
2023-04-18T07:43:27.726Z,6.13
2023-04-18T07:45:54.793Z,6.95
2023-04-18T07:48:22.506Z,7.90
2023-04-18T07:50:49.591Z,7.10
2023-04-18T07:53:17.115Z,7.15
2023-04-18T07:55:44.446Z,6.22
2023-04-18T07:58:11.557Z,6.97
2023-04-18T08:00:39.353Z,6.18
2023-04-18T08:03:12.438Z,5.97
2023-04-18T08:05:41.830Z,6.05
2023-04-18T08:08:11.496Z,5.78
2023-04-18T08:10:38.550Z,5.55
2023-04-18T08:13:07.185Z,6.63
2023-04-18T08:15:34.245Z,6.65
2023-04-18T08:18:01.915Z,7.55
2023-04-18T08:20:29.006Z,6.50
2023-04-18T08:25:31.758Z,6.50
2023-04-18T08:27:58.739Z,6.85
2023-04-18T08:30:25.801Z,6.10
2023-04-18T08:32:52.789Z,5.57
2023-04-18T08:35:19.679Z,5.65
2023-04-18T08:37:46.507Z,5.78
2023-04-18T08:40:13.612Z,5.82
2023-04-18T08:42:46.809Z,5.43
2023-04-18T08:45:14.703Z,6.70
2023-04-18T08:47:42.267Z,5.13
2023-04-18T08:50:10.724Z,5.32
2023-04-18T08:52:40.154Z,5.40
2023-04-18T08:55:09.415Z,5.22
2023-04-18T08:57:36.605Z,5.85
2023-04-18T09:00:10.226Z,6.00
2023-04-18T09:02:45.030Z,6.25
2023-04-18T09:05:20.036Z,5.90
2023-04-18T09:07:53.096Z,5.68
2023-04-18T09:10:34.188Z,6.13
2023-04-18T09:13:05.638Z,6.68
2023-04-18T09:15:32.647Z,4.88
2023-04-18T09:18:03.228Z,4.72
2023-04-18T09:20:44.557Z,4.50
2023-04-18T09:23:21.636Z,4.57
2023-04-18T09:25:51.335Z,4.40
2023-04-18T09:28:27.946Z,4.80
2023-04-18T09:31:11.718Z,4.72
2023-04-18T09:33:43.226Z,5.00
2023-04-18T09:36:29.160Z,4.35
2023-04-18T09:38:57.162Z,4.38
2023-04-18T09:41:24.599Z,5.18
2023-04-18T09:44:14.283Z,4.00
2023-04-18T09:46:45.243Z,4.22
2023-04-18T09:49:14.176Z,5.30
2023-04-18T09:51:43.171Z,4.22
2023-04-18T09:54:15.146Z,4.30
2023-04-18T09:59:21.224Z,3.85
2023-04-18T10:01:50.870Z,3.83
2023-04-18T10:04:19.184Z,4.82
2023-04-18T10:06:46.918Z,4.57
2023-04-18T10:09:16.046Z,4.43
2023-04-18T10:11:44.452Z,5.35
2023-04-18T10:14:16.215Z,4.35
2023-04-18T10:16:45.604Z,4.72
2023-04-18T10:19:27.651Z,5.78
2023-04-18T10:22:00.388Z,4.15
2023-04-18T10:24:49.516Z,3.42
2023-04-18T10:27:18.260Z,3.92
2023-04-18T10:29:53.845Z,4.72
2023-04-18T10:32:23.519Z,4.82
2023-04-18T10:34:53.458Z,4.70
2023-04-18T10:37:20.500Z,5.47
2023-04-18T10:39:58.701Z,4.68
2023-04-18T10:42:52.833Z,4.20
2023-04-18T10:45:24.973Z,4.65
2023-04-18T10:48:25.486Z,4.60
2023-04-18T10:51:18.279Z,5.25
2023-04-18T10:54:09.749Z,5.20
2023-04-18T10:56:36.996Z,5.20
2023-04-18T10:59:04.320Z,4.97
2023-04-18T11:01:33.296Z,4.72
2023-04-18T11:04:11.126Z,4.70
2023-04-18T11:07:07.421Z,5.28
2023-04-18T11:09:34.432Z,5.53
2023-04-18T11:12:11.412Z,5.05
2023-04-18T11:14:49.542Z,4.60
2023-04-18T11:17:20.617Z,4.93
2023-04-18T11:19:48.546Z,6.18
2023-04-18T11:22:17.727Z,5.43
2023-04-18T11:24:45.526Z,4.47
2023-04-18T11:27:12.993Z,4.47
2023-04-18T11:29:40.869Z,5.55
2023-04-18T11:32:09.584Z,5.80
2023-04-18T11:34:36.714Z,5.85
2023-04-18T11:37:07.904Z,5.28
2023-04-18T11:39:40.834Z,5.82
2023-04-18T11:42:08.952Z,6.35
2023-04-18T11:44:39.647Z,6.35
2023-04-18T11:47:30.028Z,6.40
2023-04-18T11:50:06.665Z,6.70
2023-04-18T11:52:35.485Z,6.80
2023-04-18T11:55:21.902Z,6.72
2023-04-18T11:57:57.273Z,7.30
2023-04-18T12:00:39.316Z,6.10
2023-04-18T12:03:15.662Z,6.22
2023-04-18T12:05:43.162Z,7.47
2023-04-18T12:08:11.950Z,7.60
2023-04-18T12:10:51.287Z,6.93
2023-04-18T12:13:26.804Z,7.05
2023-04-18T12:15:54.598Z,7.78
2023-04-18T12:18:23.309Z,6.30
2023-04-18T12:20:54.186Z,6.43
2023-04-18T12:23:40.190Z,6.35
2023-04-18T12:26:12.398Z,6.40
2023-04-18T12:28:39.317Z,7.30
2023-04-18T12:31:09.145Z,7.15
2023-04-18T12:33:36.712Z,7.03
2023-04-18T12:36:05.515Z,7.38
2023-04-18T12:38:32.374Z,5.97
2023-04-18T12:40:59.225Z,7.15
2023-04-18T12:43:26.624Z,8.48
2023-04-18T12:45:53.786Z,7.22
2023-04-18T12:48:20.782Z,7.30
2023-04-18T12:50:47.585Z,7.45
2023-04-18T12:53:14.444Z,6.63
2023-04-18T12:55:41.338Z,7.78
2023-04-18T12:58:08.174Z,8.93
2023-04-18T13:00:35.244Z,8.38
2023-04-18T13:03:02.433Z,7.60
2023-04-18T13:05:33.088Z,8.48
2023-04-18T13:10:31.460Z,7.03
2023-04-18T13:12:58.374Z,7.93
2023-04-18T13:15:26.180Z,9.25
2023-04-18T13:17:56.014Z,8.90
2023-04-18T13:20:23.079Z,9.15
2023-04-18T13:22:49.842Z,8.63
2023-04-18T13:25:17.032Z,8.95
2023-04-18T13:27:45.198Z,10.30
2023-04-18T13:30:12.426Z,9.88
2023-04-18T13:32:40.448Z,8.57
2023-04-18T13:35:08.987Z,11.07
2023-04-18T13:37:36.754Z,9.27
2023-04-18T13:40:06.480Z,9.65
2023-04-18T13:42:38.616Z,9.40
2023-04-18T13:47:32.897Z,9.50
2023-04-18T13:49:59.862Z,10.25
2023-04-18T13:52:26.775Z,9.88
2023-04-18T13:54:53.761Z,10.98
2023-04-18T13:57:21.878Z,10.85
2023-04-18T13:59:50.129Z,9.00
2023-04-18T14:02:17.261Z,10.32
2023-04-18T14:04:44.373Z,9.07
2023-04-18T14:07:11.418Z,11.10
2023-04-18T14:09:38.242Z,10.85
2023-04-18T14:12:06.047Z,9.73
2023-04-18T14:14:32.909Z,10.45
2023-04-18T14:16:59.812Z,9.98
2023-04-18T14:19:27.392Z,10.32
2023-04-18T14:21:54.302Z,11.70
2023-04-18T14:24:21.263Z,10.95
2023-04-18T14:26:48.168Z,10.05
2023-04-18T14:29:15.260Z,9.88
2023-04-18T14:31:42.282Z,10.00
2023-04-18T14:34:09.802Z,11.55
2023-04-18T14:36:37.227Z,10.30
2023-04-18T14:39:04.812Z,11.48
2023-04-18T14:41:31.750Z,10.82
2023-04-18T14:43:59.167Z,9.27
2023-04-18T14:46:28.080Z,11.63
2023-04-18T14:48:55.096Z,13.02
2023-04-18T14:51:22.797Z,12.07
2023-04-18T14:53:49.841Z,11.88
2023-04-18T14:56:20.871Z,10.25
2023-04-18T14:58:47.963Z,12.52
2023-04-18T15:01:14.951Z,12.20
2023-04-18T15:03:41.902Z,11.45
2023-04-18T15:06:08.825Z,10.95
2023-04-18T15:08:36.014Z,12.13
2023-04-18T15:11:08.180Z,11.75
2023-04-18T15:13:35.199Z,9.98
2023-04-18T15:16:02.444Z,9.98
2023-04-18T15:18:29.318Z,11.63
2023-04-18T15:20:57.294Z,10.23
2023-04-18T15:23:24.161Z,10.70
2023-04-18T15:25:50.999Z,10.90
2023-04-18T15:28:18.735Z,9.60
2023-04-18T15:30:46.369Z,10.25
2023-04-18T15:33:13.798Z,10.48
2023-04-18T15:35:40.714Z,9.60
2023-04-18T15:38:07.659Z,10.52
2023-04-18T15:40:36.327Z,10.73
2023-04-18T15:43:04.096Z,10.50
2023-04-18T15:45:31.290Z,9.63
2023-04-18T15:47:58.675Z,12.23
2023-04-18T15:50:26.126Z,10.27
2023-04-18T15:52:56.451Z,11.32
2023-04-18T15:55:23.350Z,9.18
2023-04-18T15:57:50.182Z,11.88
2023-04-18T16:00:17.630Z,11.10
2023-04-18T16:02:46.011Z,11.32
2023-04-18T16:05:15.213Z,11.60
2023-04-18T16:07:42.845Z,10.50
2023-04-18T16:10:11.211Z,10.65
2023-04-18T16:12:39.702Z,11.50
2023-04-18T16:15:09.389Z,12.35
2023-04-18T16:17:39.408Z,12.82
2023-04-18T16:20:09.124Z,13.05
2023-04-18T16:22:37.471Z,13.25
2023-04-18T16:25:05.588Z,11.25
2023-04-18T16:27:33.277Z,11.40
2023-04-18T16:30:00.352Z,11.73
2023-04-18T16:32:27.405Z,10.45
2023-04-18T16:34:54.296Z,10.73
2023-04-18T16:37:21.147Z,11.05
2023-04-18T16:39:48.175Z,11.13
2023-04-18T16:42:15.744Z,11.88
2023-04-18T16:44:44.755Z,11.52
2023-04-18T16:47:11.746Z,10.93
2023-04-18T16:49:38.968Z,9.98
2023-04-18T16:52:05.864Z,10.48
2023-04-18T16:54:32.844Z,11.30
2023-04-18T16:56:59.705Z,9.95
2023-04-18T16:59:26.584Z,10.25
2023-04-18T17:01:53.465Z,10.35
2023-04-18T17:04:21.372Z,8.93
2023-04-18T17:06:49.780Z,9.98
2023-04-18T17:09:19.778Z,9.88
2023-04-18T17:11:46.846Z,11.02
2023-04-18T17:14:14.041Z,10.52
2023-04-18T17:16:42.478Z,10.35
2023-04-18T17:19:10.365Z,10.55
2023-04-18T17:21:38.414Z,9.35
2023-04-18T17:24:07.052Z,10.23
2023-04-18T17:26:35.447Z,11.02
2023-04-18T17:29:04.128Z,9.27
2023-04-18T17:31:31.801Z,10.48
2023-04-18T17:33:59.610Z,10.45
2023-04-18T17:36:27.256Z,11.27
2023-04-18T17:38:54.170Z,9.52
2023-04-18T17:41:22.085Z,9.45
2023-04-18T17:43:53.340Z,11.00
2023-04-18T17:46:20.379Z,9.35
2023-04-18T17:48:47.332Z,10.48
2023-04-18T17:51:16.261Z,10.77
2023-04-18T17:53:43.293Z,11.35
2023-04-18T17:56:10.813Z,10.38
2023-04-18T17:58:37.648Z,9.98
2023-04-18T18:01:17.108Z,9.73
2023-04-18T18:03:44.943Z,11.45
2023-04-18T18:06:13.245Z,8.52
2023-04-18T18:08:42.548Z,11.88
2023-04-18T18:11:10.721Z,10.13
2023-04-18T18:13:39.071Z,10.65
2023-04-18T18:16:07.620Z,11.05
2023-04-18T18:18:35.016Z,10.98
2023-04-18T18:21:01.870Z,11.15
2023-04-18T18:23:29.359Z,10.40
2023-04-18T18:25:56.255Z,11.10
2023-04-18T18:28:23.122Z,11.73
2023-04-18T18:30:49.905Z,11.20
2023-04-18T18:33:16.808Z,11.25
2023-04-18T18:35:43.657Z,10.20
2023-04-18T18:38:10.494Z,11.65
2023-04-18T18:40:37.497Z,10.63
2023-04-18T18:43:04.283Z,9.55
2023-04-18T18:45:31.325Z,10.10
2023-04-18T18:47:58.425Z,10.35
2023-04-18T18:50:25.489Z,9.93
2023-04-18T18:52:52.396Z,10.27
2023-04-18T18:55:19.222Z,9.73
2023-04-18T18:57:46.682Z,10.20
2023-04-18T19:00:14.326Z,10.07
2023-04-18T19:02:41.390Z,9.93
2023-04-18T19:05:08.893Z,10.80
2023-04-18T19:07:35.724Z,10.23
2023-04-18T19:10:03.484Z,9.95
2023-04-18T19:12:30.363Z,10.07
2023-04-18T19:14:57.343Z,9.23
2023-04-18T19:17:24.863Z,9.07
2023-04-18T19:19:53.305Z,10.00
2023-04-18T19:22:20.303Z,10.68
2023-04-18T19:24:48.018Z,10.13
2023-04-18T19:27:14.877Z,9.95
2023-04-18T19:29:41.779Z,8.60
2023-04-18T19:32:08.806Z,8.85
2023-04-18T19:34:36.251Z,9.10
2023-04-18T19:37:03.727Z,8.45
2023-04-18T19:39:30.708Z,8.55
2023-04-18T19:41:57.542Z,8.57
2023-04-18T19:44:24.382Z,9.38
2023-04-18T19:46:51.184Z,8.63
2023-04-18T19:49:18.028Z,8.60
2023-04-18T19:51:44.806Z,7.95
2023-04-18T19:54:11.651Z,8.20
2023-04-18T19:56:38.498Z,8.45
2023-04-18T19:59:06.203Z,8.93
2023-04-18T20:01:33.116Z,8.45
2023-04-18T20:04:00.604Z,8.35
2023-04-18T20:06:27.955Z,8.57
2023-04-18T20:08:54.939Z,7.03
2023-04-18T20:11:22.189Z,8.85
2023-04-18T20:13:49.387Z,9.02
2023-04-18T20:16:17.348Z,7.72
2023-04-18T20:18:47.285Z,8.20
2023-04-18T20:21:14.297Z,8.48
2023-04-18T20:23:45.443Z,9.15
2023-04-18T20:26:12.477Z,8.15
2023-04-18T20:28:39.556Z,8.13
2023-04-18T20:31:07.143Z,8.25
2023-04-18T20:33:34.385Z,9.82
2023-04-18T20:36:01.778Z,8.85
2023-04-18T20:38:29.683Z,9.10
2023-04-18T20:40:58.977Z,8.75
2023-04-18T20:43:26.797Z,8.45
2023-04-18T20:45:54.549Z,7.35
2023-04-18T20:48:21.467Z,8.48
2023-04-18T20:50:51.327Z,8.25
2023-04-18T20:53:26.075Z,9.02
2023-04-18T20:55:53.191Z,9.10
2023-04-18T20:58:20.040Z,8.98
2023-04-18T21:00:48.333Z,7.97
2023-04-18T21:03:16.786Z,8.55
2023-04-18T21:05:44.877Z,8.63
2023-04-18T21:08:14.719Z,8.75
2023-04-18T21:10:41.562Z,8.10
2023-04-18T21:13:09.272Z,8.63
2023-04-18T21:15:36.481Z,8.35
2023-04-18T21:18:03.499Z,9.25
2023-04-18T21:20:30.505Z,8.48
2023-04-18T21:22:57.345Z,8.27
2023-04-18T21:25:24.136Z,8.70
2023-04-18T21:27:51.330Z,8.40
2023-04-18T21:30:18.515Z,9.15
2023-04-18T21:32:47.223Z,9.15
2023-04-18T21:35:15.019Z,8.82
2023-04-18T21:37:42.889Z,8.73
2023-04-18T21:40:10.334Z,8.18
2023-04-18T21:42:37.579Z,9.68
2023-04-18T21:45:06.263Z,8.48
2023-04-18T21:47:33.219Z,9.15
2023-04-18T21:50:00.164Z,8.60
2023-04-18T21:52:26.988Z,9.25
2023-04-18T21:54:53.836Z,9.35
2023-04-18T21:57:21.020Z,9.38
2023-04-18T21:59:47.887Z,9.18
2023-04-18T22:02:14.802Z,9.05
2023-04-18T22:04:42.794Z,9.85
2023-04-18T22:07:11.480Z,9.43
2023-04-18T22:09:38.535Z,8.75
2023-04-18T22:12:05.574Z,7.93
2023-04-18T22:14:32.421Z,9.20
2023-04-18T22:17:01.772Z,9.38
2023-04-18T22:19:29.493Z,9.73
2023-04-18T22:21:56.547Z,9.73
2023-04-18T22:24:24.646Z,9.25
2023-04-18T22:26:52.393Z,10.35
2023-04-18T22:29:19.263Z,9.52
2023-04-18T22:31:46.205Z,9.60
2023-04-18T22:34:13.248Z,8.65
2023-04-18T22:36:40.632Z,8.95
2023-04-18T22:39:07.501Z,8.32
2023-04-18T22:41:34.316Z,9.98
2023-04-18T22:44:01.093Z,10.10
2023-04-18T22:46:28.069Z,9.75
2023-04-18T22:48:55.252Z,10.85
2023-04-18T22:51:23.436Z,9.10
2023-04-18T22:53:50.322Z,9.80
2023-04-18T22:56:17.161Z,10.75
2023-04-18T22:58:43.986Z,11.18
2023-04-18T23:01:10.854Z,10.55
2023-04-18T23:03:37.839Z,9.77
2023-04-18T23:06:08.088Z,11.05
2023-04-18T23:08:35.045Z,10.68
2023-04-18T23:11:01.874Z,8.65
2023-04-18T23:13:28.708Z,10.90
2023-04-18T23:15:55.563Z,10.73
2023-04-18T23:18:22.394Z,10.50
2023-04-18T23:20:49.219Z,10.10
2023-04-18T23:23:16.099Z,9.30
2023-04-18T23:25:44.116Z,10.50
2023-04-18T23:28:10.969Z,10.23
2023-04-18T23:30:37.864Z,9.13
2023-04-18T23:33:05.934Z,9.05
2023-04-18T23:35:32.807Z,9.85
2023-04-18T23:37:59.784Z,9.80
2023-04-18T23:40:26.620Z,10.48
2023-04-18T23:42:53.489Z,10.15
2023-04-18T23:45:20.339Z,10.40
2023-04-18T23:47:47.226Z,10.63
2023-04-18T23:50:14.066Z,10.45
2023-04-18T23:52:40.994Z,10.80
2023-04-18T23:55:08.607Z,9.65
2023-04-18T23:57:35.601Z,9.43
